Time;durP1;ratioP1;P1;durP2;ratioP2;P2;SDS_P1;SDS_P2;PMS_P1;PMS_P2;Temp;Humidity;BMP_temperature;BMP_pressure;BME280_temperature;BME280_humidity;BME280_pressure;Samples;Min_cycle;Max_cycle;Signal;HPM_P1;HPM_P2
2021/12/19 00:00:51;;;;;;;12.60;2.65;;;;;;;6.22;100.00;103340.69;4991827;28;20092;-75
2021/12/19 00:08:50;;;;;;;3.65;1.95;;;;;;;6.30;100.00;103344.25;4992196;28;20033;-75
2021/12/19 00:11:21;;;;;;;6.70;3.50;;;;;;;6.36;100.00;103332.16;4992549;28;20072;-75
2021/12/19 00:13:47;;;;;;;7.28;3.30;;;;;;;6.32;100.00;103320.09;4996659;28;20034;-75
2021/12/19 00:16:12;;;;;;;8.55;3.88;;;;;;;6.39;100.00;103322.00;4992234;28;20038;-68
2021/12/19 00:18:46;;;;;;;13.38;6.15;;;;;;;6.41;100.00;103312.00;4990109;28;20760;-68
2021/12/19 00:21:15;;;;;;;14.27;5.97;;;;;;;6.43;100.00;103318.03;4999753;28;20516;-68
2021/12/19 00:23:41;;;;;;;11.65;5.35;;;;;;;6.43;100.00;103302.03;4992608;28;20457;-68
2021/12/19 00:26:07;;;;;;;23.20;7.82;;;;;;;6.44;100.00;103309.03;4991371;28;20151;-68
2021/12/19 00:28:33;;;;;;;43.88;8.52;;;;;;;6.46;100.00;103311.53;4990980;28;20048;-69
2021/12/19 00:30:59;;;;;;;14.00;6.60;;;;;;;6.38;100.00;103304.31;4990368;28;20500;-68
2021/12/19 00:33:27;;;;;;;11.63;5.93;;;;;;;6.43;100.00;103291.38;4990810;28;20026;-69
2021/12/19 00:35:55;;;;;;;18.45;6.95;;;;;;;6.47;100.00;103294.53;4978841;28;20049;-69
2021/12/19 00:38:21;;;;;;;13.25;6.75;;;;;;;6.53;100.00;103312.59;4982342;28;20394;-69
2021/12/19 00:40:47;;;;;;;6.47;2.83;;;;;;;6.39;100.00;103295.31;4992664;28;20064;-69
2021/12/19 00:43:23;;;;;;;4.15;2.58;;;;;;;6.41;100.00;103292.50;4989577;28;20069;-68
2021/12/19 00:45:50;;;;;;;14.75;5.10;;;;;;;6.37;100.00;103293.81;4996961;28;20033;-68
2021/12/19 00:48:16;;;;;;;47.80;9.23;;;;;;;6.44;100.00;103298.38;5004578;28;20120;-69
2021/12/19 00:50:42;;;;;;;31.60;8.75;;;;;;;6.49;100.00;103295.22;4991624;28;20037;-68
2021/12/19 00:53:07;;;;;;;34.33;7.78;;;;;;;6.45;100.00;103296.53;4991697;28;20030;-69
2021/12/19 00:55:33;;;;;;;22.30;6.80;;;;;;;6.45;100.00;103289.38;4996085;28;20061;-69
2021/12/19 00:58:01;;;;;;;19.58;5.28;;;;;;;6.47;100.00;103286.53;4978556;28;20485;-68
2021/12/19 01:00:34;;;;;;;18.35;7.50;;;;;;;6.51;100.00;103290.56;4989405;28;20040;-69
2021/12/19 01:03:00;;;;;;;15.27;4.95;;;;;;;6.49;100.00;103294.38;4999912;28;20257;-69
2021/12/19 01:05:28;;;;;;;15.60;5.50;;;;;;;6.49;100.00;103283.72;4977879;28;20467;-69
2021/12/19 01:07:53;;;;;;;16.73;4.50;;;;;;;6.43;100.00;103290.50;5006293;28;20484;-69
2021/12/19 01:10:19;;;;;;;8.88;4.00;;;;;;;6.34;100.00;103278.94;4996721;28;20068;-69
2021/12/19 01:12:46;;;;;;;3.38;2.10;;;;;;;6.34;100.00;103280.78;4990126;28;20075;-69
2021/12/19 01:15:14;;;;;;;4.50;2.40;;;;;;;6.41;100.00;103281.84;4991494;28;20580;-69
2021/12/19 01:17:40;;;;;;;3.42;2.40;;;;;;;6.35;100.00;103288.66;4996905;28;20060;-69
2021/12/19 01:20:13;;;;;;;10.48;4.05;;;;;;;6.38;100.00;103271.50;4990688;28;20041;-69
2021/12/19 01:22:42;;;;;;;9.50;4.75;;;;;;;6.40;100.00;103259.66;4990614;28;20456;-69
2021/12/19 01:25:07;;;;;;;21.38;7.03;;;;;;;6.40;100.00;103270.31;4990229;28;20404;-69
2021/12/19 01:27:35;;;;;;;19.45;7.50;;;;;;;6.47;100.00;103260.72;5004709;28;20147;-69
2021/12/19 01:30:02;;;;;;;19.90;7.70;;;;;;;6.54;100.00;103262.75;4996276;28;20034;-69
2021/12/19 01:32:30;;;;;;;20.13;8.15;;;;;;;6.57;100.00;103265.09;4990477;28;20968;-69
2021/12/19 01:34:58;;;;;;;9.00;4.10;;;;;;;6.50;100.00;103270.22;4990378;28;20222;-69
2021/12/19 01:37:23;;;;;;;4.45;2.42;;;;;;;6.52;100.00;103278.09;4988731;28;20065;-69
2021/12/19 01:39:49;;;;;;;7.53;2.00;;;;;;;6.54;100.00;103282.25;4990254;28;20033;-69
2021/12/19 01:42:19;;;;;;;7.05;1.50;;;;;;;6.46;100.00;103264.38;4979569;28;20145;-69
2021/12/19 01:44:48;;;;;;;8.93;2.45;;;;;;;6.47;100.00;103271.38;4996295;28;20033;-70
2021/12/19 01:47:14;;;;;;;8.05;3.20;;;;;;;6.47;100.00;103266.03;4990068;28;20092;-69
2021/12/19 01:49:40;;;;;;;15.57;4.13;;;;;;;6.42;100.00;103252.34;4988836;28;20132;-70
2021/12/19 01:52:09;;;;;;;17.35;5.78;;;;;;;6.50;100.00;103267.53;4998310;28;20036;-69
2021/12/19 01:54:36;;;;;;;8.82;2.90;;;;;;;6.55;100.00;103264.41;4990108;28;20507;-69
2021/12/19 01:57:02;;;;;;;5.13;1.80;;;;;;;6.53;100.00;103263.75;5004256;28;20034;-69
2021/12/19 01:59:28;;;;;;;5.13;1.92;;;;;;;6.51;100.00;103255.88;4991227;28;20363;-69
2021/12/19 02:01:55;;;;;;;7.65;3.20;;;;;;;6.56;100.00;103260.75;4976966;28;20071;-69
2021/12/19 02:04:23;;;;;;;9.38;3.45;;;;;;;6.57;100.00;103252.59;4994500;28;20029;-69
2021/12/19 02:06:52;;;;;;;11.98;5.00;;;;;;;6.60;100.00;103259.44;5004349;28;20025;-70
2021/12/19 02:09:21;;;;;;;14.98;5.53;;;;;;;6.64;100.00;103255.47;4989564;28;20029;-69
2021/12/19 02:11:48;;;;;;;11.48;4.03;;;;;;;6.68;100.00;103251.50;4997188;28;20029;-69
2021/12/19 02:14:14;;;;;;;8.02;4.22;;;;;;;6.65;100.00;103246.44;4990153;28;20033;-69
2021/12/19 02:16:42;;;;;;;7.00;4.00;;;;;;;6.65;100.00;103246.44;4989275;28;20050;-69
2021/12/19 02:19:10;;;;;;;8.50;3.38;;;;;;;6.59;100.00;103257.75;5004855;28;20064;-69
2021/12/19 02:21:38;;;;;;;14.77;6.68;;;;;;;6.62;100.00;103249.44;4994667;28;20045;-68
2021/12/19 02:24:10;;;;;;;15.40;6.45;;;;;;;6.66;100.00;103234.78;4990631;28;20033;-68
2021/12/19 02:26:39;;;;;;;21.92;6.97;;;;;;;6.67;100.00;103231.13;4990176;28;20121;-68
2021/12/19 02:29:07;;;;;;;24.80;7.55;;;;;;;6.67;100.00;103236.44;4988419;28;20048;-68
2021/12/19 02:31:35;;;;;;;20.80;8.63;;;;;;;6.67;100.00;103228.44;4990199;28;20621;-69
2021/12/19 02:49:58;;;;;;;12.88;5.47;;;;;;;6.63;100.00;103189.78;4990870;28;20040;-69
2021/12/19 02:52:26;;;;;;;6.30;2.20;;;;;;;6.55;100.00;103197.75;4991634;28;20056;-69
2021/12/19 02:54:52;;;;;;;3.63;1.85;;;;;;;6.46;100.00;103195.03;4988202;28;20038;-70
2021/12/19 02:57:20;;;;;;;7.25;1.63;;;;;;;6.43;100.00;103198.03;4987807;28;20037;-68
2021/12/19 02:59:46;;;;;;;5.45;1.70;;;;;;;6.36;100.00;103199.66;4998300;28;20037;-69
2021/12/19 03:02:11;;;;;;;8.00;1.83;;;;;;;6.37;100.00;103195.16;4998688;28;20456;-69
2021/12/19 03:04:36;;;;;;;5.78;1.58;;;;;;;6.35;100.00;103186.47;4998989;28;20125;-68
2021/12/19 03:07:02;;;;;;;6.50;1.85;;;;;;;6.37;100.00;103190.66;5008870;28;20061;-68
2021/12/19 03:09:51;;;;;;;9.50;2.63;;;;;;;6.33;100.00;103177.78;4992889;28;20072;-70
2021/12/19 03:20:16;;;;;;;6.53;2.05;;;;;;;6.25;100.00;103165.25;4999386;28;20394;-69
2021/12/19 03:22:42;;;;;;;3.95;1.63;;;;;;;6.27;100.00;103173.97;5007626;28;20038;-68
2021/12/19 03:25:12;;;;;;;6.78;2.28;;;;;;;6.29;100.00;103171.13;4992885;28;20064;-69
2021/12/19 03:27:37;;;;;;;10.18;2.90;;;;;;;6.28;100.00;103167.63;4993450;28;20500;-68
2021/12/19 03:30:05;;;;;;;8.75;1.95;;;;;;;6.20;100.00;103164.91;4991252;28;20037;-68
2021/12/19 03:32:30;;;;;;;3.88;1.60;;;;;;;6.20;100.00;103156.94;5007515;28;20041;-69
2021/12/19 03:34:56;;;;;;;8.73;1.48;;;;;;;6.17;100.00;103152.72;4996636;28;20373;-69
2021/12/19 03:37:24;;;;;;;7.15;2.15;;;;;;;6.17;100.00;103142.06;4993105;28;20262;-70
2021/12/19 03:40:07;;;;;;;10.63;3.08;;;;;;;6.18;100.00;103134.91;4992577;28;20228;-71
2021/12/19 03:42:32;;;;;;;10.35;2.83;;;;;;;6.27;100.00;103144.63;4995443;28;20482;-70
2021/12/19 03:44:58;;;;;;;5.78;1.30;;;;;;;6.21;100.00;103141.75;4992384;28;20204;-69
2021/12/19 03:47:24;;;;;;;8.07;1.88;;;;;;;6.23;100.00;103140.59;4997162;28;20075;-69
2021/12/19 03:49:49;;;;;;;8.05;3.55;;;;;;;6.24;100.00;103146.75;4993252;28;20029;-69
2021/12/19 03:52:15;;;;;;;9.73;3.70;;;;;;;6.27;100.00;103136.63;4991377;28;20053;-69
2021/12/19 03:54:41;;;;;;;6.03;2.78;;;;;;;6.34;100.00;103136.81;4993021;28;20065;-70
2021/12/19 03:57:09;;;;;;;14.38;4.25;;;;;;;6.36;100.00;103132.16;4992640;28;20066;-68
2021/12/19 03:59:35;;;;;;;13.57;2.80;;;;;;;6.28;100.00;103122.31;4991887;28;20167;-68
2021/12/19 04:02:01;;;;;;;7.57;1.70;;;;;;;6.22;100.00;103125.59;4993033;28;20041;-70
2021/12/19 04:04:27;;;;;;;2.92;1.30;;;;;;;6.22;100.00;103128.28;4990580;28;20474;-70
2021/12/19 04:06:54;;;;;;;8.15;1.95;;;;;;;6.24;100.00;103118.28;4992695;28;20038;-69
2021/12/19 04:09:20;;;;;;;5.70;2.22;;;;;;;6.23;100.00;103111.28;5006886;28;20468;-69
2021/12/19 04:11:45;;;;;;;9.15;2.75;;;;;;;6.24;100.00;103104.13;4990825;28;20048;-68
2021/12/19 04:14:13;;;;;;;13.68;4.43;;;;;;;6.26;100.00;103102.94;4991773;28;20033;-68
2021/12/19 04:16:42;;;;;;;16.42;5.38;;;;;;;6.35;100.00;103096.69;4991883;28;20057;-69
2021/12/19 04:19:11;;;;;;;11.85;4.38;;;;;;;6.35;100.00;103091.34;4991504;28;20072;-70
2021/12/19 04:21:36;;;;;;;15.05;4.82;;;;;;;6.37;100.00;103089.34;4992586;28;20042;-69
2021/12/19 04:24:02;;;;;;;11.13;3.55;;;;;;;6.36;100.00;103098.34;5006830;28;20099;-69
2021/12/19 04:26:30;;;;;;;8.02;1.65;;;;;;;6.28;100.00;103090.31;4992007;28;22021;-69
2021/12/19 04:28:56;;;;;;;7.68;1.10;;;;;;;6.22;100.00;103080.28;5007997;28;20120;-68
2021/12/19 04:31:24;;;;;;;4.93;1.15;;;;;;;6.21;100.00;103091.13;4994068;28;20044;-68
2021/12/19 04:33:49;;;;;;;6.95;1.40;;;;;;;6.10;100.00;103070.91;5005484;28;20501;-68
2021/12/19 04:36:25;;;;;;;9.68;2.03;;;;;;;6.01;100.00;103078.03;4991219;28;20148;-68
2021/12/19 04:44:34;;;;;;;5.30;1.55;;;;;;;6.11;100.00;103080.59;4990883;28;20046;-68
2021/12/19 05:00:11;;;;;;;8.05;1.77;;;;;;;6.11;100.00;103078.75;5003944;28;20269;-68
2021/12/19 05:16:15;;;;;;;9.50;1.70;;;;;;;5.98;100.00;103090.84;4984504;28;20040;-67
2021/12/19 05:18:43;;;;;;;7.85;1.80;;;;;;;5.97;100.00;103082.03;4989830;28;20343;-69
2021/12/19 05:21:25;;;;;;;9.25;1.50;;;;;;;6.01;100.00;103087.84;4991742;28;20037;-70
2021/12/19 05:26:21;;;;;;;6.65;1.50;;;;;;;5.97;100.00;103084.69;4991349;28;20049;-69
2021/12/19 05:28:48;;;;;;;8.73;1.77;;;;;;;5.97;100.00;103075.84;4990875;28;20045;-69
2021/12/19 05:31:18;;;;;;;7.05;1.45;;;;;;;6.03;100.00;103075.22;4990878;28;20033;-69
2021/12/19 05:33:46;;;;;;;;;;;;;;;5.98;100.00;103073.03;4991309;28;20261;-69
2021/12/19 05:46:54;;;;;;;12.05;2.58;;;;;;;6.10;100.00;103060.22;4988396;28;20084;-69
2021/12/19 05:49:20;;;;;;;7.93;1.75;;;;;;;6.11;100.00;103067.25;4991234;28;20029;-69
2021/12/19 05:51:46;;;;;;;7.68;1.75;;;;;;;6.14;100.00;103064.25;4977254;28;20071;-70
2021/12/19 05:54:12;;;;;;;8.02;1.73;;;;;;;6.08;100.00;103067.56;4989296;28;20038;-69
2021/12/19 05:56:40;;;;;;;11.20;1.63;;;;;;;6.04;100.00;103060.91;4990361;28;20145;-68
2021/12/19 05:59:06;;;;;;;10.43;2.00;;;;;;;6.05;100.00;103073.22;4990518;28;20042;-69
2021/12/19 06:01:32;;;;;;;7.20;1.27;;;;;;;5.95;100.00;103069.84;4994445;28;20310;-68
2021/12/19 06:04:00;;;;;;;8.77;1.10;;;;;;;5.97;100.00;103073.19;4990714;28;20041;-75
2021/12/19 06:06:26;;;;;;;9.65;1.10;;;;;;;6.00;100.00;103067.53;4993739;28;20029;-75
2021/12/19 06:08:55;;;;;;;5.55;0.80;;;;;;;6.04;100.00;103060.91;4994531;28;20387;-75
2021/12/19 06:11:20;;;;;;;10.25;1.15;;;;;;;6.09;100.00;103064.72;4990586;28;20190;-75
2021/12/19 06:13:46;;;;;;;5.03;0.80;;;;;;;6.11;100.00;103051.28;4978068;28;20077;-75
2021/12/19 06:16:11;;;;;;;5.45;0.95;;;;;;;6.08;100.00;103057.75;4990396;28;20363;-75
2021/12/19 06:18:37;;;;;;;7.85;1.08;;;;;;;6.09;100.00;103050.56;4989851;28;20063;-75
2021/12/19 06:21:03;;;;;;;6.65;0.88;;;;;;;6.01;100.00;103045.22;4990816;28;20104;-74
2021/12/19 06:23:33;;;;;;;6.30;0.82;;;;;;;5.98;100.00;103032.22;4989656;28;20045;-74
2021/12/19 06:25:59;;;;;;;7.00;1.55;;;;;;;6.05;100.00;103046.56;4994130;28;20045;-73
2021/12/19 06:28:25;;;;;;;7.93;1.30;;;;;;;6.02;100.00;103046.88;4992036;28;20029;-73
2021/12/19 06:30:50;;;;;;;9.82;1.85;;;;;;;6.05;100.00;103047.41;4987749;28;20139;-74
2021/12/19 06:33:16;;;;;;;7.72;1.00;;;;;;;5.99;100.00;103036.56;4993674;28;20381;-70
2021/12/19 06:35:42;;;;;;;8.73;1.00;;;;;;;5.96;100.00;103037.72;4990405;28;20040;-70
2021/12/19 06:38:07;;;;;;;7.97;1.30;;;;;;;6.05;100.00;103041.25;5004976;28;20473;-70
2021/12/19 06:40:33;;;;;;;11.73;1.60;;;;;;;5.92;100.00;103038.19;4990675;28;20160;-70
2021/12/19 06:42:59;;;;;;;6.57;1.00;;;;;;;5.95;100.00;103029.91;4999107;28;20524;-70
2021/12/19 06:45:27;;;;;;;4.30;0.93;;;;;;;6.01;100.00;103038.06;4990159;28;20060;-70
2021/12/19 06:47:53;;;;;;;10.88;1.30;;;;;;;6.00;100.00;103039.06;4997040;28;20034;-70
2021/12/19 06:50:19;;;;;;;8.18;1.48;;;;;;;6.02;100.00;103030.88;4990718;28;20084;-70
2021/12/19 06:52:48;;;;;;;14.32;1.52;;;;;;;6.10;100.00;103033.59;4990547;28;20386;-70
2021/12/19 06:55:16;;;;;;;9.57;1.88;;;;;;;6.08;100.00;103022.25;4990336;28;20033;-70
2021/12/19 06:57:42;;;;;;;9.52;1.05;;;;;;;6.08;100.00;103031.09;4999513;28;20037;-73
2021/12/19 07:00:16;;;;;;;6.32;1.30;;;;;;;6.02;100.00;103026.41;5004837;28;20065;-73
2021/12/19 07:02:41;;;;;;;9.10;1.52;;;;;;;6.00;100.00;103008.91;4990168;28;20066;-73
2021/12/19 07:05:08;;;;;;;10.45;2.00;;;;;;;6.12;100.00;103015.63;4990224;28;20041;-73
2021/12/19 07:07:34;;;;;;;11.32;1.40;;;;;;;6.10;100.00;103012.25;4996111;28;20752;-73
2021/12/19 07:10:00;;;;;;;10.68;1.80;;;;;;;6.12;100.00;103021.78;4989350;28;20128;-73
2021/12/19 07:12:26;;;;;;;11.00;1.30;;;;;;;6.05;100.00;103009.28;4994968;28;20496;-73
2021/12/19 07:14:56;;;;;;;12.77;1.60;;;;;;;6.18;100.00;103010.44;5004027;28;20026;-74
2021/12/19 07:17:24;;;;;;;13.07;1.98;;;;;;;6.18;100.00;103007.78;4989593;28;20046;-74
2021/12/19 07:19:51;;;;;;;9.18;1.30;;;;;;;6.25;100.00;103015.97;4989828;28;20056;-74
2021/12/19 07:22:18;;;;;;;13.45;1.30;;;;;;;6.25;100.00;103010.66;4988814;28;20080;-74
2021/12/19 07:24:45;;;;;;;8.27;1.35;;;;;;;6.17;100.00;103006.13;4979738;28;20473;-74
2021/12/19 07:27:13;;;;;;;7.82;2.05;;;;;;;6.21;100.00;103017.31;4990126;28;20293;-74
2021/12/19 07:29:39;;;;;;;13.80;1.48;;;;;;;6.24;100.00;103016.13;4980599;28;20158;-74
2021/12/19 07:32:10;;;;;;;13.05;2.67;;;;;;;6.21;100.00;103001.31;4989006;28;20169;-74
2021/12/19 07:34:37;;;;;;;9.63;1.73;;;;;;;6.25;100.00;103005.31;4989769;28;20040;-74
2021/12/19 07:37:06;;;;;;;15.15;1.52;;;;;;;6.19;100.00;103011.31;4989831;28;20395;-73
2021/12/19 07:42:05;;;;;;;12.35;1.20;;;;;;;6.17;100.00;102999.97;4990091;28;20041;-73
2021/12/19 07:44:31;;;;;;;8.65;1.15;;;;;;;6.13;100.00;103001.28;5004584;28;20100;-74
2021/12/19 07:46:57;;;;;;;13.95;1.65;;;;;;;6.09;100.00;102994.59;5005883;28;20083;-75
2021/12/19 07:49:22;;;;;;;9.88;1.38;;;;;;;5.92;100.00;102999.06;4992784;28;20040;-75
2021/12/19 07:51:48;;;;;;;11.48;1.17;;;;;;;5.91;100.00;103005.38;4999906;28;20129;-75
2021/12/19 07:54:14;;;;;;;4.25;1.10;;;;;;;5.87;100.00;103004.03;5001865;28;20045;-75
2021/12/19 07:56:39;;;;;;;5.38;0.68;;;;;;;5.86;100.00;102994.31;4997181;28;20563;-75
2021/12/19 07:59:08;;;;;;;4.97;0.82;;;;;;;5.87;100.00;102974.72;5008097;28;20432;-75
2021/12/19 08:01:37;;;;;;;10.93;1.42;;;;;;;5.91;100.00;102981.41;4985077;28;20477;-74
2021/12/19 08:04:11;;;;;;;12.30;1.23;;;;;;;5.87;100.00;102980.88;4993832;28;20230;-74
2021/12/19 08:06:38;;;;;;;12.93;1.75;;;;;;;5.90;100.00;102980.56;4993714;28;20049;-75
2021/12/19 08:09:22;;;;;;;11.48;1.17;;;;;;;6.01;100.00;102975.94;4992935;28;20037;-75
2021/12/19 08:11:47;;;;;;;10.77;1.40;;;;;;;6.07;100.00;102973.47;4994423;28;20048;-75
2021/12/19 08:14:14;;;;;;;17.88;2.85;;;;;;;6.04;100.00;102972.97;4992708;28;20553;-75
2021/12/19 08:16:42;;;;;;;18.35;3.38;;;;;;;6.11;100.00;102974.81;4993621;28;22384;-75
2021/12/19 08:19:09;;;;;;;14.23;2.90;;;;;;;6.22;100.00;102968.31;5000935;28;21941;-75
2021/12/19 08:21:35;;;;;;;16.83;3.50;;;;;;;6.19;100.00;102963.34;4993623;28;20076;-75
2021/12/19 08:24:02;;;;;;;18.30;3.28;;;;;;;6.25;100.00;102962.66;4995367;28;20026;-74
2021/12/19 08:26:29;;;;;;;10.15;3.22;;;;;;;6.23;100.00;102959.34;5008214;28;20597;-74
2021/12/19 08:28:55;;;;;;;20.33;3.67;;;;;;;6.26;100.00;102948.31;5006709;28;20313;-73
2021/12/19 08:31:20;;;;;;;20.67;4.47;;;;;;;6.41;100.00;102965.34;4991856;28;20034;-73
2021/12/19 08:33:46;;;;;;;19.10;3.63;;;;;;;6.43;100.00;102963.38;4992229;28;20029;-73
2021/12/19 08:36:12;;;;;;;24.90;5.30;;;;;;;6.42;100.00;102961.69;4992966;28;20575;-73
2021/12/19 08:38:38;;;;;;;25.17;5.47;;;;;;;6.46;100.00;102954.19;4992589;28;20025;-72
2021/12/19 08:41:03;;;;;;;23.35;5.90;;;;;;;6.47;100.00;102955.84;4992411;28;20119;-76
2021/12/19 08:43:29;;;;;;;28.67;6.50;;;;;;;6.54;100.00;102953.38;4981501;28;20038;-77
2021/12/19 08:45:56;;;;;;;23.88;5.60;;;;;;;6.47;100.00;102946.03;4991205;28;20615;-75
2021/12/19 08:48:21;;;;;;;19.33;5.65;;;;;;;6.44;100.00;102951.69;4991150;28;20037;-76
2021/12/19 08:50:47;;;;;;;24.90;5.95;;;;;;;6.38;100.00;102941.69;4991918;28;20418;-75
2021/12/19 08:53:15;;;;;;;21.05;5.38;;;;;;;6.46;100.00;102955.03;4993044;28;20747;-76
2021/12/19 08:55:43;;;;;;;21.80;5.72;;;;;;;6.38;100.00;102956.84;4992985;28;20121;-76
2021/12/19 08:58:09;;;;;;;20.83;5.55;;;;;;;6.41;100.00;102952.00;5004218;28;20041;-78
2021/12/19 09:00:34;;;;;;;16.88;4.55;;;;;;;6.32;100.00;102947.69;4993336;28;20041;-77
2021/12/19 09:03:00;;;;;;;19.13;4.45;;;;;;;6.34;100.00;102950.16;4974112;28;20120;-75
2021/12/19 09:05:30;;;;;;;19.15;4.45;;;;;;;6.33;100.00;102944.00;4992682;28;20713;-75
2021/12/19 09:07:55;;;;;;;20.75;4.80;;;;;;;6.31;100.00;102923.84;4997255;28;20030;-76
2021/12/19 09:10:24;;;;;;;25.33;5.85;;;;;;;6.41;100.00;102936.00;4993204;28;20427;-77
2021/12/19 09:12:53;;;;;;;20.77;5.88;;;;;;;6.42;100.00;102936.84;4991361;28;20033;-77
2021/12/19 09:15:19;;;;;;;20.40;5.25;;;;;;;6.47;100.00;102935.34;4997830;28;20033;-77
2021/12/19 09:17:45;;;;;;;24.98;5.60;;;;;;;6.53;100.00;102943.69;5006854;28;20104;-79
2021/12/19 09:20:15;;;;;;;22.38;4.82;;;;;;;6.53;100.00;102949.88;4981891;28;20057;-77
2021/12/19 09:22:43;;;;;;;22.73;4.30;;;;;;;6.57;100.00;102950.34;4979185;28;20198;-76
2021/12/19 09:25:10;;;;;;;21.35;5.55;;;;;;;6.59;100.00;102943.84;4992740;28;20473;-77
2021/12/19 09:27:35;;;;;;;32.58;5.47;;;;;;;6.63;100.00;102939.84;4992452;28;20041;-77
2021/12/19 09:30:04;;;;;;;23.17;5.18;;;;;;;6.59;100.00;102943.00;5006099;28;20284;-77
2021/12/19 09:32:29;;;;;;;31.98;5.38;;;;;;;6.56;100.00;102932.69;4992119;28;20053;-76
2021/12/19 09:34:57;;;;;;;20.00;4.68;;;;;;;6.53;100.00;102943.69;4992197;28;21020;-76
2021/12/19 09:37:23;;;;;;;20.92;5.55;;;;;;;6.47;100.00;102940.69;4991398;28;20406;-76
2021/12/19 09:39:53;;;;;;;16.17;4.40;;;;;;;6.43;100.00;102942.03;4995360;28;20044;-75
2021/12/19 09:42:22;;;;;;;16.27;4.65;;;;;;;6.41;100.00;102943.19;4991607;28;21787;-71
2021/12/19 09:44:47;;;;;;;18.00;4.65;;;;;;;6.53;100.00;102938.38;4991553;28;20038;-71
2021/12/19 09:47:13;;;;;;;21.73;4.30;;;;;;;6.57;100.00;102935.19;4992011;28;20045;-70
2021/12/19 09:49:38;;;;;;;21.00;5.47;;;;;;;6.55;100.00;102934.53;4991846;28;20041;-71
2021/12/19 09:52:07;;;;;;;22.40;4.55;;;;;;;6.53;100.00;102935.72;4991225;28;20034;-71
2021/12/19 09:54:35;;;;;;;20.75;4.70;;;;;;;6.61;100.00;102936.53;5006317;28;20434;-70
2021/12/19 09:57:01;;;;;;;25.55;8.52;;;;;;;6.60;100.00;102915.38;4996163;28;20034;-69
2021/12/19 09:59:26;;;;;;;24.85;5.53;;;;;;;6.63;100.00;102917.69;4991472;28;20048;-70
2021/12/19 10:01:54;;;;;;;28.45;7.32;;;;;;;6.67;100.00;102913.66;4990884;28;20043;-70
2021/12/19 10:04:39;;;;;;;19.42;5.15;;;;;;;6.73;100.00;102926.34;4991132;28;20042;-70
2021/12/19 10:07:05;;;;;;;23.75;4.35;;;;;;;6.67;100.00;102925.16;4977879;28;20095;-70
2021/12/19 10:09:31;;;;;;;18.77;4.90;;;;;;;6.68;100.00;102921.53;5005866;28;20041;-69
2021/12/19 10:12:11;;;;;;;19.80;5.15;;;;;;;6.67;100.00;102919.00;4995429;28;20037;-70
2021/12/19 10:14:42;;;;;;;14.73;4.63;;;;;;;6.64;100.00;102919.34;4990618;28;20383;-70
2021/12/19 10:17:19;;;;;;;19.42;6.25;;;;;;;6.72;100.00;102920.19;5004509;28;20037;-70
2021/12/19 10:19:57;;;;;;;17.08;3.95;;;;;;;6.71;100.00;102926.53;4999100;28;20049;-70
2021/12/19 10:22:31;;;;;;;24.75;4.45;;;;;;;6.70;100.00;102935.53;4988626;28;20048;-70
2021/12/19 10:25:10;;;;;;;17.30;2.63;;;;;;;6.43;100.00;102902.03;4990578;28;20347;-70
2021/12/19 10:27:47;;;;;;;15.65;3.47;;;;;;;6.50;100.00;102920.84;4990747;28;20030;-70
2021/12/19 10:30:18;;;;;;;17.13;3.95;;;;;;;6.52;100.00;102928.72;5005761;28;20034;-70
2021/12/19 10:33:14;;;;;;;12.68;2.55;;;;;;;6.45;100.00;102926.69;4990867;28;20221;-70
2021/12/19 10:35:49;;;;;;;14.73;3.03;;;;;;;6.39;100.00;102915.84;4990063;28;20049;-70
2021/12/19 10:38:16;;;;;;;15.25;2.20;;;;;;;6.42;100.00;102915.50;5005607;28;20129;-70
2021/12/19 10:41:06;;;;;;;9.02;2.00;;;;;;;6.38;100.00;102916.88;4991679;28;20079;-72
2021/12/19 10:43:35;;;;;;;13.85;2.33;;;;;;;6.33;100.00;102909.34;4986561;28;20532;-71
2021/12/19 10:46:05;;;;;;;12.18;3.75;;;;;;;6.31;100.00;102916.69;5003688;28;20589;-71
2021/12/19 10:48:32;;;;;;;21.75;8.40;;;;;;;6.35;100.00;102912.72;4990778;28;20038;-71
2021/12/19 10:51:08;;;;;;;19.35;6.35;;;;;;;6.36;100.00;102902.88;4989823;28;20726;-71
2021/12/19 10:53:44;;;;;;;19.13;6.28;;;;;;;6.29;100.00;102901.88;4989726;28;20096;-70
2021/12/19 10:56:15;;;;;;;18.30;4.70;;;;;;;6.17;100.00;102901.34;4989272;28;20041;-71
2021/12/19 10:59:01;;;;;;;19.27;3.53;;;;;;;6.15;100.00;102892.69;4980240;28;20033;-72
2021/12/19 11:01:31;;;;;;;10.95;2.80;;;;;;;6.17;100.00;102886.19;4980394;28;20037;-71
2021/12/19 11:03:59;;;;;;;10.77;2.60;;;;;;;6.20;100.00;102885.03;5004741;28;20095;-71
2021/12/19 11:06:25;;;;;;;12.43;2.70;;;;;;;6.25;100.00;102888.03;5005076;28;20037;-71
2021/12/19 11:08:52;;;;;;;12.95;2.42;;;;;;;6.26;100.00;102879.03;4990319;28;20045;-71
2021/12/19 11:11:35;;;;;;;9.50;2.78;;;;;;;6.35;100.00;102872.72;4994585;28;20576;-71
2021/12/19 11:14:02;;;;;;;15.30;3.63;;;;;;;6.45;100.00;102865.38;4990235;28;20494;-70
2021/12/19 11:16:27;;;;;;;27.65;3.40;;;;;;;6.41;100.00;102865.84;4989823;28;20037;-71
2021/12/19 11:18:53;;;;;;;18.20;3.85;;;;;;;6.44;100.00;102862.88;4990045;28;20058;-71
2021/12/19 11:21:19;;;;;;;15.40;3.80;;;;;;;6.56;100.00;102863.34;4979961;28;20124;-71
2021/12/19 11:23:46;;;;;;;17.33;3.80;;;;;;;6.39;100.00;102836.69;4993945;28;20044;-70
2021/12/19 11:26:12;;;;;;;11.10;3.00;;;;;;;6.61;100.00;102861.03;5003316;28;20036;-71
2021/12/19 11:28:37;;;;;;;21.73;4.68;;;;;;;6.55;100.00;102845.69;4993520;28;20079;-71
2021/12/19 11:31:06;;;;;;;21.83;4.65;;;;;;;6.51;100.00;102828.34;5010270;28;20489;-70
2021/12/19 11:33:43;;;;;;;26.05;4.55;;;;;;;6.64;100.00;102850.00;5007747;28;20132;-70
2021/12/19 11:36:09;;;;;;;22.88;4.35;;;;;;;6.65;100.00;102844.50;4982131;28;20041;-71
2021/12/19 11:38:36;;;;;;;18.73;3.92;;;;;;;6.63;100.00;102843.00;4997927;28;20030;-71
2021/12/19 11:41:11;;;;;;;18.67;4.60;;;;;;;6.71;100.00;102840.31;5002155;28;20509;-71
2021/12/19 11:43:40;;;;;;;19.05;5.28;;;;;;;6.74;100.00;102845.31;4993029;28;20484;-70
2021/12/19 11:46:24;;;;;;;28.30;4.97;;;;;;;6.77;100.00;102836.97;5001292;28;20045;-71
2021/12/19 11:49:23;;;;;;;31.40;13.18;;;;;;;6.63;100.00;102835.84;5000423;28;22083;-71
2021/12/19 11:52:26;;;;;;;24.75;3.78;;;;;;;6.55;100.00;102830.50;4991082;28;20037;-71
2021/12/19 11:55:16;;;;;;;16.38;3.92;;;;;;;6.55;100.00;102827.03;4993326;28;20048;-71
2021/12/19 11:57:42;;;;;;;23.23;4.03;;;;;;;6.45;100.00;102824.53;4998553;28;20136;-71
2021/12/19 12:00:34;;;;;;;19.30;3.90;;;;;;;6.46;100.00;102824.38;4993336;28;20037;-72
2021/12/19 12:03:11;;;;;;;13.00;2.60;;;;;;;6.54;100.00;102820.03;4992252;28;22342;-72
2021/12/19 12:05:37;;;;;;;16.73;3.03;;;;;;;6.51;100.00;102813.16;4993653;28;20041;-72
2021/12/19 12:08:05;;;;;;;15.02;2.40;;;;;;;6.45;100.00;102809.38;4997764;28;20192;-71
2021/12/19 12:11:11;;;;;;;13.38;3.00;;;;;;;6.46;100.00;102811.03;4993142;28;20070;-71
2021/12/19 12:13:42;;;;;;;13.15;3.25;;;;;;;6.43;100.00;102798.06;5007014;28;20054;-71
2021/12/19 12:18:59;;;;;;;12.98;3.08;;;;;;;6.68;100.00;102804.16;4993337;28;20133;-72
2021/12/19 12:21:29;;;;;;;19.02;3.10;;;;;;;6.68;100.00;102803.31;5007091;28;20068;-71
2021/12/19 12:24:02;;;;;;;13.85;2.50;;;;;;;6.59;100.00;102791.81;4997795;28;20170;-71
2021/12/19 12:26:37;;;;;;;8.43;2.70;;;;;;;6.57;100.00;102787.66;4990627;28;20679;-71
2021/12/19 12:29:02;;;;;;;14.25;2.65;;;;;;;6.59;100.00;102782.97;4993308;28;20120;-69
2021/12/19 12:31:28;;;;;;;17.00;2.40;;;;;;;6.65;100.00;102788.47;4992465;28;20029;-71
2021/12/19 12:33:55;;;;;;;13.15;4.05;;;;;;;6.73;100.00;102782.28;4989651;28;20068;-70
2021/12/19 12:36:21;;;;;;;10.95;2.30;;;;;;;6.86;100.00;102787.91;4992645;28;20410;-72
2021/12/19 12:38:50;;;;;;;13.80;2.88;;;;;;;6.90;100.00;102780.38;4992980;28;20601;-72
2021/12/19 12:41:40;;;;;;;13.93;2.40;;;;;;;6.91;100.00;102785.53;4991923;28;20052;-71
2021/12/19 12:44:14;;;;;;;9.05;1.95;;;;;;;6.91;100.00;102777.53;4994664;28;20132;-69
2021/12/19 12:46:42;;;;;;;12.63;2.80;;;;;;;6.93;100.00;102770.22;4991456;28;20681;-71